sensor_id;sensor_type;location;lat;lon;timestamp;P1;P2;P0
80639;PMS5003;69992;60.170;24.692;2024-02-21T00:01:54;10;10;
80639;PMS5003;69992;60.170;24.692;2024-02-21T00:04:20;8;6;
80639;PMS5003;69992;60.170;24.692;2024-02-21T00:06:45;8;8;
80639;PMS5003;69992;60.170;24.692;2024-02-21T00:09:11;10;9;
80639;PMS5003;69992;60.170;24.692;2024-02-21T00:11:39;9;8;
80639;PMS5003;69992;60.170;24.692;2024-02-21T00:14:02;8;8;
80639;PMS5003;69992;60.170;24.692;2024-02-21T00:16:27;8;6;
80639;PMS5003;69992;60.170;24.692;2024-02-21T00:18:53;10;9;
80639;PMS5003;69992;60.170;24.692;2024-02-21T00:21:18;11;10;
80639;PMS5003;69992;60.170;24.692;2024-02-21T00:23:47;13;10;
80639;PMS5003;69992;60.170;24.692;2024-02-21T00:26:09;9;8;
80639;PMS5003;69992;60.170;24.692;2024-02-21T00:28:35;8;8;
80639;PMS5003;69992;60.170;24.692;2024-02-21T00:31:00;9;8;
80639;PMS5003;69992;60.170;24.692;2024-02-21T00:33:26;8;8;
80639;PMS5003;69992;60.170;24.692;2024-02-21T00:35:51;8;6;
80639;PMS5003;69992;60.170;24.692;2024-02-21T00:38:18;10;9;
80639;PMS5003;69992;60.170;24.692;2024-02-21T00:40:42;8;8;
80639;PMS5003;69992;60.170;24.692;2024-02-21T00:43:08;8;8;
80639;PMS5003;69992;60.170;24.692;2024-02-21T00:45:33;9;9;
80639;PMS5003;69992;60.170;24.692;2024-02-21T00:48:02;9;9;
80639;PMS5003;69992;60.170;24.692;2024-02-21T00:50:25;11;10;
80639;PMS5003;69992;60.170;24.692;2024-02-21T00:52:50;6;6;
80639;PMS5003;69992;60.170;24.692;2024-02-21T00:55:16;13;12;
80639;PMS5003;69992;60.170;24.692;2024-02-21T00:57:42;10;9;
80639;PMS5003;69992;60.170;24.692;2024-02-21T01:00:07;9;9;
80639;PMS5003;69992;60.170;24.692;2024-02-21T01:02:33;10;10;
80639;PMS5003;69992;60.170;24.692;2024-02-21T01:04:58;12;11;
80639;PMS5003;69992;60.170;24.692;2024-02-21T01:07:24;6;6;
80639;PMS5003;69992;60.170;24.692;2024-02-21T01:09:49;12;10;
80639;PMS5003;69992;60.170;24.692;2024-02-21T01:12:14;8;8;
80639;PMS5003;69992;60.170;24.692;2024-02-21T01:14:39;10;10;
80639;PMS5003;69992;60.170;24.692;2024-02-21T01:17:05;9;9;
80639;PMS5003;69992;60.170;24.692;2024-02-21T01:19:30;6;6;
80639;PMS5003;69992;60.170;24.692;2024-02-21T01:21:56;10;9;
80639;PMS5003;69992;60.170;24.692;2024-02-21T01:24:21;9;8;
80639;PMS5003;69992;60.170;24.692;2024-02-21T01:26:47;9;8;
80639;PMS5003;69992;60.170;24.692;2024-02-21T01:29:12;8;8;
80639;PMS5003;69992;60.170;24.692;2024-02-21T01:31:38;8;6;
80639;PMS5003;69992;60.170;24.692;2024-02-21T01:34:04;8;6;
80639;PMS5003;69992;60.170;24.692;2024-02-21T01:36:33;6;6;
80639;PMS5003;69992;60.170;24.692;2024-02-21T01:38:55;32;29;
80639;PMS5003;69992;60.170;24.692;2024-02-21T01:41:20;11;10;
80639;PMS5003;69992;60.170;24.692;2024-02-21T01:43:45;13;11;
80639;PMS5003;69992;60.170;24.692;2024-02-21T01:46:11;6;6;
80639;PMS5003;69992;60.170;24.692;2024-02-21T01:48:36;8;8;
80639;PMS5003;69992;60.170;24.692;2024-02-21T01:51:01;8;6;
80639;PMS5003;69992;60.170;24.692;2024-02-21T01:53:29;9;8;
80639;PMS5003;69992;60.170;24.692;2024-02-21T01:55:53;8;8;
80639;PMS5003;69992;60.170;24.692;2024-02-21T01:58:19;8;8;
80639;PMS5003;69992;60.170;24.692;2024-02-21T02:00:44;8;8;
80639;PMS5003;69992;60.170;24.692;2024-02-21T02:03:10;8;8;
80639;PMS5003;69992;60.170;24.692;2024-02-21T02:05:35;10;10;
80639;PMS5003;69992;60.170;24.692;2024-02-21T02:08:01;8;8;
80639;PMS5003;69992;60.170;24.692;2024-02-21T02:10:26;9;9;
80639;PMS5003;69992;60.170;24.692;2024-02-21T02:12:51;9;8;
80639;PMS5003;69992;60.170;24.692;2024-02-21T02:15:16;9;9;
80639;PMS5003;69992;60.170;24.692;2024-02-21T02:17:42;8;5;
80639;PMS5003;69992;60.170;24.692;2024-02-21T02:20:08;10;8;
80639;PMS5003;69992;60.170;24.692;2024-02-21T02:22:33;6;6;
80639;PMS5003;69992;60.170;24.692;2024-02-21T02:24:59;7;7;
80639;PMS5003;69992;60.170;24.692;2024-02-21T02:27:25;9;6;
80639;PMS5003;69992;60.170;24.692;2024-02-21T02:29:50;9;8;
80639;PMS5003;69992;60.170;24.692;2024-02-21T02:32:16;8;6;
80639;PMS5003;69992;60.170;24.692;2024-02-21T02:34:41;9;8;
80639;PMS5003;69992;60.170;24.692;2024-02-21T02:37:07;9;9;
80639;PMS5003;69992;60.170;24.692;2024-02-21T02:39:32;10;9;
80639;PMS5003;69992;60.170;24.692;2024-02-21T02:41:58;9;8;
80639;PMS5003;69992;60.170;24.692;2024-02-21T02:44:23;10;8;
80639;PMS5003;69992;60.170;24.692;2024-02-21T02:46:49;8;8;
80639;PMS5003;69992;60.170;24.692;2024-02-21T02:49:14;8;8;
80639;PMS5003;69992;60.170;24.692;2024-02-21T02:51:41;9;9;
80639;PMS5003;69992;60.170;24.692;2024-02-21T02:54:05;8;8;
80639;PMS5003;69992;60.170;24.692;2024-02-21T02:56:31;9;8;
80639;PMS5003;69992;60.170;24.692;2024-02-21T02:58:56;9;8;
80639;PMS5003;69992;60.170;24.692;2024-02-21T03:01:23;6;6;
80639;PMS5003;69992;60.170;24.692;2024-02-21T03:03:47;12;11;
80639;PMS5003;69992;60.170;24.692;2024-02-21T03:06:13;11;10;
80639;PMS5003;69992;60.170;24.692;2024-02-21T03:08:38;8;8;
80639;PMS5003;69992;60.170;24.692;2024-02-21T03:11:04;10;8;
80639;PMS5003;69992;60.170;24.692;2024-02-21T03:13:30;9;9;
80639;PMS5003;69992;60.170;24.692;2024-02-21T03:16:00;12;9;
80639;PMS5003;69992;60.170;24.692;2024-02-21T03:18:24;9;8;
80639;PMS5003;69992;60.170;24.692;2024-02-21T03:20:47;10;10;
80639;PMS5003;69992;60.170;24.692;2024-02-21T03:23:12;15;11;
80639;PMS5003;69992;60.170;24.692;2024-02-21T03:25:38;11;10;
80639;PMS5003;69992;60.170;24.692;2024-02-21T03:28:03;10;10;
80639;PMS5003;69992;60.170;24.692;2024-02-21T03:30:29;13;10;
80639;PMS5003;69992;60.170;24.692;2024-02-21T03:32:54;12;10;
80639;PMS5003;69992;60.170;24.692;2024-02-21T03:35:19;9;9;
80639;PMS5003;69992;60.170;24.692;2024-02-21T03:37:45;14;11;
80639;PMS5003;69992;60.170;24.692;2024-02-21T03:40:11;10;10;
80639;PMS5003;69992;60.170;24.692;2024-02-21T03:42:37;12;12;
80639;PMS5003;69992;60.170;24.692;2024-02-21T03:45:02;12;11;
80639;PMS5003;69992;60.170;24.692;2024-02-21T03:47:28;11;11;
80639;PMS5003;69992;60.170;24.692;2024-02-21T03:49:53;12;12;
80639;PMS5003;69992;60.170;24.692;2024-02-21T03:52:19;12;12;
80639;PMS5003;69992;60.170;24.692;2024-02-21T03:54:44;12;12;
80639;PMS5003;69992;60.170;24.692;2024-02-21T03:57:10;14;12;
80639;PMS5003;69992;60.170;24.692;2024-02-21T03:59:35;15;12;
80639;PMS5003;69992;60.170;24.692;2024-02-21T04:02:01;11;10;
80639;PMS5003;69992;60.170;24.692;2024-02-21T04:04:26;14;14;
80639;PMS5003;69992;60.170;24.692;2024-02-21T04:06:52;15;15;
80639;PMS5003;69992;60.170;24.692;2024-02-21T04:09:18;12;11;
80639;PMS5003;69992;60.170;24.692;2024-02-21T04:11:42;12;12;
80639;PMS5003;69992;60.170;24.692;2024-02-21T04:14:08;15;14;
80639;PMS5003;69992;60.170;24.692;2024-02-21T04:16:34;16;14;
80639;PMS5003;69992;60.170;24.692;2024-02-21T04:18:59;9;9;
80639;PMS5003;69992;60.170;24.692;2024-02-21T04:21:25;15;14;
80639;PMS5003;69992;60.170;24.692;2024-02-21T04:23:50;11;10;
80639;PMS5003;69992;60.170;24.692;2024-02-21T04:26:16;14;14;
80639;PMS5003;69992;60.170;24.692;2024-02-21T04:28:44;14;14;
80639;PMS5003;69992;60.170;24.692;2024-02-21T04:31:07;10;10;
80639;PMS5003;69992;60.170;24.692;2024-02-21T04:33:32;11;10;
80639;PMS5003;69992;60.170;24.692;2024-02-21T04:35:58;11;9;
80639;PMS5003;69992;60.170;24.692;2024-02-21T04:38:24;10;10;
80639;PMS5003;69992;60.170;24.692;2024-02-21T04:40:50;12;11;
80639;PMS5003;69992;60.170;24.692;2024-02-21T04:43:15;12;11;
80639;PMS5003;69992;60.170;24.692;2024-02-21T04:45:40;17;14;
80639;PMS5003;69992;60.170;24.692;2024-02-21T04:48:05;14;12;
80639;PMS5003;69992;60.170;24.692;2024-02-21T04:50:30;14;12;
80639;PMS5003;69992;60.170;24.692;2024-02-21T04:52:56;14;11;
80639;PMS5003;69992;60.170;24.692;2024-02-21T04:55:21;17;12;
80639;PMS5003;69992;60.170;24.692;2024-02-21T04:57:46;18;15;
80639;PMS5003;69992;60.170;24.692;2024-02-21T05:00:12;15;12;
80639;PMS5003;69992;60.170;24.692;2024-02-21T05:02:37;14;14;
80639;PMS5003;69992;60.170;24.692;2024-02-21T05:05:03;16;12;
80639;PMS5003;69992;60.170;24.692;2024-02-21T05:07:28;15;15;
80639;PMS5003;69992;60.170;24.692;2024-02-21T05:09:54;15;15;
80639;PMS5003;69992;60.170;24.692;2024-02-21T05:12:19;14;12;
80639;PMS5003;69992;60.170;24.692;2024-02-21T05:14:44;17;14;
80639;PMS5003;69992;60.170;24.692;2024-02-21T05:17:10;14;12;
80639;PMS5003;69992;60.170;24.692;2024-02-21T05:19:38;14;11;
80639;PMS5003;69992;60.170;24.692;2024-02-21T05:22:01;15;15;
80639;PMS5003;69992;60.170;24.692;2024-02-21T05:24:26;12;10;
80639;PMS5003;69992;60.170;24.692;2024-02-21T05:26:51;22;15;
80639;PMS5003;69992;60.170;24.692;2024-02-21T05:29:17;14;12;
80639;PMS5003;69992;60.170;24.692;2024-02-21T05:31:54;15;14;
80639;PMS5003;69992;60.170;24.692;2024-02-21T05:34:08;14;14;
80639;PMS5003;69992;60.170;24.692;2024-02-21T05:36:33;14;14;
80639;PMS5003;69992;60.170;24.692;2024-02-21T05:38:59;15;12;
80639;PMS5003;69992;60.170;24.692;2024-02-21T05:41:25;15;12;
80639;PMS5003;69992;60.170;24.692;2024-02-21T05:43:50;14;12;
80639;PMS5003;69992;60.170;24.692;2024-02-21T05:46:18;16;15;
80639;PMS5003;69992;60.170;24.692;2024-02-21T05:48:41;17;15;
80639;PMS5003;69992;60.170;24.692;2024-02-21T05:51:06;12;11;
80639;PMS5003;69992;60.170;24.692;2024-02-21T05:53:32;18;15;
80639;PMS5003;69992;60.170;24.692;2024-02-21T05:55:58;17;16;
80639;PMS5003;69992;60.170;24.692;2024-02-21T05:58:23;13;13;
80639;PMS5003;69992;60.170;24.692;2024-02-21T06:00:49;14;14;
80639;PMS5003;69992;60.170;24.692;2024-02-21T06:03:14;19;16;
80639;PMS5003;69992;60.170;24.692;2024-02-21T06:05:39;16;15;
80639;PMS5003;69992;60.170;24.692;2024-02-21T06:08:08;17;16;
80639;PMS5003;69992;60.170;24.692;2024-02-21T06:10:30;19;17;
80639;PMS5003;69992;60.170;24.692;2024-02-21T06:12:55;15;15;
80639;PMS5003;69992;60.170;24.692;2024-02-21T06:15:21;18;17;
80639;PMS5003;69992;60.170;24.692;2024-02-21T06:17:47;17;16;
80639;PMS5003;69992;60.170;24.692;2024-02-21T06:20:16;16;15;
80639;PMS5003;69992;60.170;24.692;2024-02-21T06:22:37;19;17;
80639;PMS5003;69992;60.170;24.692;2024-02-21T06:25:02;18;16;
80639;PMS5003;69992;60.170;24.692;2024-02-21T06:27:27;17;14;
80639;PMS5003;69992;60.170;24.692;2024-02-21T06:29:53;24;18;
80639;PMS5003;69992;60.170;24.692;2024-02-21T06:32:18;14;14;
80639;PMS5003;69992;60.170;24.692;2024-02-21T06:34:44;22;19;
80639;PMS5003;69992;60.170;24.692;2024-02-21T06:37:10;12;12;
80639;PMS5003;69992;60.170;24.692;2024-02-21T06:39:35;17;15;
80639;PMS5003;69992;60.170;24.692;2024-02-21T06:42:00;16;15;
80639;PMS5003;69992;60.170;24.692;2024-02-21T06:44:25;16;14;
80639;PMS5003;69992;60.170;24.692;2024-02-21T06:46:54;19;17;
80639;PMS5003;69992;60.170;24.692;2024-02-21T06:49:17;22;21;
80639;PMS5003;69992;60.170;24.692;2024-02-21T06:51:42;17;16;
80639;PMS5003;69992;60.170;24.692;2024-02-21T06:54:07;19;19;
80639;PMS5003;69992;60.170;24.692;2024-02-21T06:56:33;19;17;
80639;PMS5003;69992;60.170;24.692;2024-02-21T06:58:58;15;15;
80639;PMS5003;69992;60.170;24.692;2024-02-21T07:01:24;18;17;
80639;PMS5003;69992;60.170;24.692;2024-02-21T07:03:49;23;19;
80639;PMS5003;69992;60.170;24.692;2024-02-21T07:06:14;21;17;
80639;PMS5003;69992;60.170;24.692;2024-02-21T07:08:40;23;16;
80639;PMS5003;69992;60.170;24.692;2024-02-21T07:11:06;17;16;
80639;PMS5003;69992;60.170;24.692;2024-02-21T07:13:31;21;18;
80639;PMS5003;69992;60.170;24.692;2024-02-21T07:15:57;18;17;
80639;PMS5003;69992;60.170;24.692;2024-02-21T07:18:23;21;19;
80639;PMS5003;69992;60.170;24.692;2024-02-21T07:20:48;24;19;
80639;PMS5003;69992;60.170;24.692;2024-02-21T07:23:17;24;19;
80639;PMS5003;69992;60.170;24.692;2024-02-21T07:25:39;19;18;
80639;PMS5003;69992;60.170;24.692;2024-02-21T07:28:05;22;18;
80639;PMS5003;69992;60.170;24.692;2024-02-21T07:30:30;26;23;
80639;PMS5003;69992;60.170;24.692;2024-02-21T07:32:56;17;15;
80639;PMS5003;69992;60.170;24.692;2024-02-21T07:35:25;18;18;
80639;PMS5003;69992;60.170;24.692;2024-02-21T07:37:47;23;22;
80639;PMS5003;69992;60.170;24.692;2024-02-21T07:40:13;19;18;
80639;PMS5003;69992;60.170;24.692;2024-02-21T07:42:38;22;21;
80639;PMS5003;69992;60.170;24.692;2024-02-21T07:45:04;20;20;
80639;PMS5003;69992;60.170;24.692;2024-02-21T07:47:28;28;21;
80639;PMS5003;69992;60.170;24.692;2024-02-21T07:49:54;17;16;
80639;PMS5003;69992;60.170;24.692;2024-02-21T07:52:20;24;20;
80639;PMS5003;69992;60.170;24.692;2024-02-21T07:54:45;22;20;
80639;PMS5003;69992;60.170;24.692;2024-02-21T07:57:11;26;20;
80639;PMS5003;69992;60.170;24.692;2024-02-21T07:59:37;26;23;
80639;PMS5003;69992;60.170;24.692;2024-02-21T08:02:02;24;22;
80639;PMS5003;69992;60.170;24.692;2024-02-21T08:04:28;19;18;
80639;PMS5003;69992;60.170;24.692;2024-02-21T08:06:53;20;19;
80639;PMS5003;69992;60.170;24.692;2024-02-21T08:09:19;24;23;
80639;PMS5003;69992;60.170;24.692;2024-02-21T08:11:45;25;20;
80639;PMS5003;69992;60.170;24.692;2024-02-21T08:14:10;25;24;
80639;PMS5003;69992;60.170;24.692;2024-02-21T08:16:35;23;22;
80639;PMS5003;69992;60.170;24.692;2024-02-21T08:19:01;19;18;
80639;PMS5003;69992;60.170;24.692;2024-02-21T08:21:26;23;19;
80639;PMS5003;69992;60.170;24.692;2024-02-21T08:23:52;25;21;
80639;PMS5003;69992;60.170;24.692;2024-02-21T08:26:17;22;20;
80639;PMS5003;69992;60.170;24.692;2024-02-21T08:28:43;29;25;
80639;PMS5003;69992;60.170;24.692;2024-02-21T08:31:08;25;21;
80639;PMS5003;69992;60.170;24.692;2024-02-21T08:33:36;17;17;
80639;PMS5003;69992;60.170;24.692;2024-02-21T08:35:59;21;20;
80639;PMS5003;69992;60.170;24.692;2024-02-21T08:38:25;20;17;
80639;PMS5003;69992;60.170;24.692;2024-02-21T08:40:50;23;20;
80639;PMS5003;69992;60.170;24.692;2024-02-21T08:43:16;18;17;
80639;PMS5003;69992;60.170;24.692;2024-02-21T08:45:44;21;20;
80639;PMS5003;69992;60.170;24.692;2024-02-21T08:48:07;16;16;
80639;PMS5003;69992;60.170;24.692;2024-02-21T08:50:32;19;18;
80639;PMS5003;69992;60.170;24.692;2024-02-21T08:52:57;21;20;
80639;PMS5003;69992;60.170;24.692;2024-02-21T08:55:23;21;20;
80639;PMS5003;69992;60.170;24.692;2024-02-21T08:57:48;17;17;
80639;PMS5003;69992;60.170;24.692;2024-02-21T09:00:14;18;15;
80639;PMS5003;69992;60.170;24.692;2024-02-21T09:02:44;19;18;
80639;PMS5003;69992;60.170;24.692;2024-02-21T09:05:08;19;19;
80639;PMS5003;69992;60.170;24.692;2024-02-21T09:07:30;21;21;
80639;PMS5003;69992;60.170;24.692;2024-02-21T09:09:55;20;19;
80639;PMS5003;69992;60.170;24.692;2024-02-21T09:12:21;18;17;
80639;PMS5003;69992;60.170;24.692;2024-02-21T09:14:47;20;17;
80639;PMS5003;69992;60.170;24.692;2024-02-21T09:17:12;17;16;
80639;PMS5003;69992;60.170;24.692;2024-02-21T09:19:38;18;18;
80639;PMS5003;69992;60.170;24.692;2024-02-21T09:22:04;23;18;
80639;PMS5003;69992;60.170;24.692;2024-02-21T09:24:29;18;17;
80639;PMS5003;69992;60.170;24.692;2024-02-21T09:26:55;22;20;
80639;PMS5003;69992;60.170;24.692;2024-02-21T09:29:24;20;19;
80639;PMS5003;69992;60.170;24.692;2024-02-21T09:31:47;21;20;
80639;PMS5003;69992;60.170;24.692;2024-02-21T09:34:12;18;17;
80639;PMS5003;69992;60.170;24.692;2024-02-21T09:36:37;14;14;
80639;PMS5003;69992;60.170;24.692;2024-02-21T09:39:03;17;17;
80639;PMS5003;69992;60.170;24.692;2024-02-21T09:41:28;21;18;
80639;PMS5003;69992;60.170;24.692;2024-02-21T09:43:53;19;14;
80639;PMS5003;69992;60.170;24.692;2024-02-21T09:46:21;17;17;
80639;PMS5003;69992;60.170;24.692;2024-02-21T09:48:49;19;17;
80639;PMS5003;69992;60.170;24.692;2024-02-21T09:51:09;19;17;
80639;PMS5003;69992;60.170;24.692;2024-02-21T09:53:35;20;18;
80639;PMS5003;69992;60.170;24.692;2024-02-21T09:56:00;20;20;
80639;PMS5003;69992;60.170;24.692;2024-02-21T09:58:26;18;18;
80639;PMS5003;69992;60.170;24.692;2024-02-21T10:00:51;23;22;
80639;PMS5003;69992;60.170;24.692;2024-02-21T10:03:16;20;18;
80639;PMS5003;69992;60.170;24.692;2024-02-21T10:05:48;19;18;
80639;PMS5003;69992;60.170;24.692;2024-02-21T10:08:13;22;19;
80639;PMS5003;69992;60.170;24.692;2024-02-21T10:10:42;19;18;
80639;PMS5003;69992;60.170;24.692;2024-02-21T10:12:59;22;19;
80639;PMS5003;69992;60.170;24.692;2024-02-21T10:15:25;26;23;
80639;PMS5003;69992;60.170;24.692;2024-02-21T10:20:19;21;17;
80639;PMS5003;69992;60.170;24.692;2024-02-21T10:22:41;20;20;
80639;PMS5003;69992;60.170;24.692;2024-02-21T10:25:07;19;15;
80639;PMS5003;69992;60.170;24.692;2024-02-21T10:27:31;29;22;
80639;PMS5003;69992;60.170;24.692;2024-02-21T10:29:56;18;17;
80639;PMS5003;69992;60.170;24.692;2024-02-21T10:32:21;21;20;
80639;PMS5003;69992;60.170;24.692;2024-02-21T10:34:47;19;18;
80639;PMS5003;69992;60.170;24.692;2024-02-21T10:37:13;19;17;
80639;PMS5003;69992;60.170;24.692;2024-02-21T10:39:41;21;18;
80639;PMS5003;69992;60.170;24.692;2024-02-21T10:42:04;17;15;
80639;PMS5003;69992;60.170;24.692;2024-02-21T10:44:30;18;18;
80639;PMS5003;69992;60.170;24.692;2024-02-21T10:46:55;17;17;
80639;PMS5003;69992;60.170;24.692;2024-02-21T10:49:22;14;14;
80639;PMS5003;69992;60.170;24.692;2024-02-21T10:51:46;25;21;
80639;PMS5003;69992;60.170;24.692;2024-02-21T10:54:16;18;18;
80639;PMS5003;69992;60.170;24.692;2024-02-21T10:56:38;21;20;
80639;PMS5003;69992;60.170;24.692;2024-02-21T10:59:04;21;18;
80639;PMS5003;69992;60.170;24.692;2024-02-21T11:01:29;18;18;
80639;PMS5003;69992;60.170;24.692;2024-02-21T11:03:55;21;19;
80639;PMS5003;69992;60.170;24.692;2024-02-21T11:06:20;19;18;
80639;PMS5003;69992;60.170;24.692;2024-02-21T11:08:46;19;17;
80639;PMS5003;69992;60.170;24.692;2024-02-21T11:11:12;20;17;
80639;PMS5003;69992;60.170;24.692;2024-02-21T11:13:36;19;19;
80639;PMS5003;69992;60.170;24.692;2024-02-21T11:16:07;20;18;
80639;PMS5003;69992;60.170;24.692;2024-02-21T11:18:27;18;17;
80639;PMS5003;69992;60.170;24.692;2024-02-21T11:20:53;19;18;
80639;PMS5003;69992;60.170;24.692;2024-02-21T11:25:44;19;18;
80639;PMS5003;69992;60.170;24.692;2024-02-21T11:28:10;15;15;
80639;PMS5003;69992;60.170;24.692;2024-02-21T11:30:35;20;19;
80639;PMS5003;69992;60.170;24.692;2024-02-21T11:33:01;17;15;
80639;PMS5003;69992;60.170;24.692;2024-02-21T11:35:28;26;21;
80639;PMS5003;69992;60.170;24.692;2024-02-21T11:37:52;19;19;
80639;PMS5003;69992;60.170;24.692;2024-02-21T11:40:18;15;15;
80639;PMS5003;69992;60.170;24.692;2024-02-21T11:42:44;19;18;
80639;PMS5003;69992;60.170;24.692;2024-02-21T11:45:14;29;22;
80639;PMS5003;69992;60.170;24.692;2024-02-21T11:47:38;20;20;
80639;PMS5003;69992;60.170;24.692;2024-02-21T11:50:00;22;19;
80639;PMS5003;69992;60.170;24.692;2024-02-21T11:52:25;17;15;
80639;PMS5003;69992;60.170;24.692;2024-02-21T11:54:50;14;14;
80639;PMS5003;69992;60.170;24.692;2024-02-21T11:57:16;15;15;
80639;PMS5003;69992;60.170;24.692;2024-02-21T11:59:45;23;20;
80639;PMS5003;69992;60.170;24.692;2024-02-21T12:02:07;21;19;
80639;PMS5003;69992;60.170;24.692;2024-02-21T12:04:33;21;19;
80639;PMS5003;69992;60.170;24.692;2024-02-21T12:06:58;19;16;
80639;PMS5003;69992;60.170;24.692;2024-02-21T12:09:24;20;19;
80639;PMS5003;69992;60.170;24.692;2024-02-21T12:14:16;21;20;
80639;PMS5003;69992;60.170;24.692;2024-02-21T12:16:39;26;21;
80639;PMS5003;69992;60.170;24.692;2024-02-21T12:19:05;19;17;
80639;PMS5003;69992;60.170;24.692;2024-02-21T12:21:31;20;19;
80639;PMS5003;69992;60.170;24.692;2024-02-21T12:23:57;20;19;
80639;PMS5003;69992;60.170;24.692;2024-02-21T12:26:22;18;18;
80639;PMS5003;69992;60.170;24.692;2024-02-21T12:28:47;19;18;
80639;PMS5003;69992;60.170;24.692;2024-02-21T12:31:13;19;19;
80639;PMS5003;69992;60.170;24.692;2024-02-21T12:33:39;23;19;
80639;PMS5003;69992;60.170;24.692;2024-02-21T12:36:04;22;20;
80639;PMS5003;69992;60.170;24.692;2024-02-21T12:38:30;33;26;
80639;PMS5003;69992;60.170;24.692;2024-02-21T12:40:55;17;17;
80639;PMS5003;69992;60.170;24.692;2024-02-21T12:43:21;22;21;
80639;PMS5003;69992;60.170;24.692;2024-02-21T12:45:46;15;14;
80639;PMS5003;69992;60.170;24.692;2024-02-21T12:48:12;20;20;
80639;PMS5003;69992;60.170;24.692;2024-02-21T12:50:37;22;19;
80639;PMS5003;69992;60.170;24.692;2024-02-21T12:53:03;21;21;
80639;PMS5003;69992;60.170;24.692;2024-02-21T12:55:28;18;17;
80639;PMS5003;69992;60.170;24.692;2024-02-21T12:57:54;19;19;
80639;PMS5003;69992;60.170;24.692;2024-02-21T13:00:19;21;20;
80639;PMS5003;69992;60.170;24.692;2024-02-21T13:02:45;19;18;
80639;PMS5003;69992;60.170;24.692;2024-02-21T13:05:10;21;19;
80639;PMS5003;69992;60.170;24.692;2024-02-21T13:07:36;20;19;
80639;PMS5003;69992;60.170;24.692;2024-02-21T13:10:01;25;22;
80639;PMS5003;69992;60.170;24.692;2024-02-21T13:12:27;20;20;
80639;PMS5003;69992;60.170;24.692;2024-02-21T13:14:52;20;19;
80639;PMS5003;69992;60.170;24.692;2024-02-21T13:17:18;18;17;
80639;PMS5003;69992;60.170;24.692;2024-02-21T13:19:43;17;17;
80639;PMS5003;69992;60.170;24.692;2024-02-21T13:22:08;18;17;
80639;PMS5003;69992;60.170;24.692;2024-02-21T13:24:34;24;21;
80639;PMS5003;69992;60.170;24.692;2024-02-21T13:27:00;24;22;
80639;PMS5003;69992;60.170;24.692;2024-02-21T13:29:25;17;16;
80639;PMS5003;69992;60.170;24.692;2024-02-21T13:31:51;16;14;
80639;PMS5003;69992;60.170;24.692;2024-02-21T13:34:16;25;19;
80639;PMS5003;69992;60.170;24.692;2024-02-21T13:36:41;18;17;
80639;PMS5003;69992;60.170;24.692;2024-02-21T13:39:06;14;14;
80639;PMS5003;69992;60.170;24.692;2024-02-21T13:41:32;27;21;
80639;PMS5003;69992;60.170;24.692;2024-02-21T13:43:58;18;17;
80639;PMS5003;69992;60.170;24.692;2024-02-21T13:46:23;20;19;
80639;PMS5003;69992;60.170;24.692;2024-02-21T13:48:48;20;19;
80639;PMS5003;69992;60.170;24.692;2024-02-21T13:51:14;19;18;
80639;PMS5003;69992;60.170;24.692;2024-02-21T13:53:39;21;19;
80639;PMS5003;69992;60.170;24.692;2024-02-21T13:56:05;21;20;
80639;PMS5003;69992;60.170;24.692;2024-02-21T13:58:30;18;16;
80639;PMS5003;69992;60.170;24.692;2024-02-21T14:00:59;20;18;
80639;PMS5003;69992;60.170;24.692;2024-02-21T14:03:21;19;18;
80639;PMS5003;69992;60.170;24.692;2024-02-21T14:05:46;24;20;
80639;PMS5003;69992;60.170;24.692;2024-02-21T14:08:12;22;19;
80639;PMS5003;69992;60.170;24.692;2024-02-21T14:10:38;18;17;
80639;PMS5003;69992;60.170;24.692;2024-02-21T14:13:06;19;18;
80639;PMS5003;69992;60.170;24.692;2024-02-21T14:15:29;18;18;
80639;PMS5003;69992;60.170;24.692;2024-02-21T14:17:54;18;17;
80639;PMS5003;69992;60.170;24.692;2024-02-21T14:20:19;16;16;
80639;PMS5003;69992;60.170;24.692;2024-02-21T14:22:45;19;17;
80639;PMS5003;69992;60.170;24.692;2024-02-21T14:25:11;22;20;
80639;PMS5003;69992;60.170;24.692;2024-02-21T14:27:36;18;18;
80639;PMS5003;69992;60.170;24.692;2024-02-21T14:30:02;19;18;
80639;PMS5003;69992;60.170;24.692;2024-02-21T14:32:27;27;21;
80639;PMS5003;69992;60.170;24.692;2024-02-21T14:34:52;18;18;
80639;PMS5003;69992;60.170;24.692;2024-02-21T14:37:23;22;18;
80639;PMS5003;69992;60.170;24.692;2024-02-21T14:39:44;22;21;
80639;PMS5003;69992;60.170;24.692;2024-02-21T14:42:09;17;17;
80639;PMS5003;69992;60.170;24.692;2024-02-21T14:44:35;19;18;
80639;PMS5003;69992;60.170;24.692;2024-02-21T14:47:01;28;25;
80639;PMS5003;69992;60.170;24.692;2024-02-21T14:49:26;19;19;
80639;PMS5003;69992;60.170;24.692;2024-02-21T14:51:52;19;18;
80639;PMS5003;69992;60.170;24.692;2024-02-21T14:54:17;20;19;
80639;PMS5003;69992;60.170;24.692;2024-02-21T14:56:43;20;20;
80639;PMS5003;69992;60.170;24.692;2024-02-21T14:59:08;23;20;
80639;PMS5003;69992;60.170;24.692;2024-02-21T15:01:35;19;18;
80639;PMS5003;69992;60.170;24.692;2024-02-21T15:03:59;19;17;
80639;PMS5003;69992;60.170;24.692;2024-02-21T15:06:25;20;20;
80639;PMS5003;69992;60.170;24.692;2024-02-21T15:08:51;19;18;
80639;PMS5003;69992;60.170;24.692;2024-02-21T15:11:16;21;19;
80639;PMS5003;69992;60.170;24.692;2024-02-21T15:13:41;18;17;
80639;PMS5003;69992;60.170;24.692;2024-02-21T15:16:07;26;21;
80639;PMS5003;69992;60.170;24.692;2024-02-21T15:18:33;17;17;
80639;PMS5003;69992;60.170;24.692;2024-02-21T15:20:58;19;18;
80639;PMS5003;69992;60.170;24.692;2024-02-21T15:23:23;18;18;
80639;PMS5003;69992;60.170;24.692;2024-02-21T15:25:49;18;17;
80639;PMS5003;69992;60.170;24.692;2024-02-21T15:28:14;17;17;
80639;PMS5003;69992;60.170;24.692;2024-02-21T15:30:39;18;17;
80639;PMS5003;69992;60.170;24.692;2024-02-21T15:33:05;19;18;
80639;PMS5003;69992;60.170;24.692;2024-02-21T15:35:31;17;16;
80639;PMS5003;69992;60.170;24.692;2024-02-21T15:37:57;20;19;
80639;PMS5003;69992;60.170;24.692;2024-02-21T15:40:23;21;20;
80639;PMS5003;69992;60.170;24.692;2024-02-21T15:42:48;30;21;
80639;PMS5003;69992;60.170;24.692;2024-02-21T15:45:13;21;20;
80639;PMS5003;69992;60.170;24.692;2024-02-21T15:47:39;24;20;
80639;PMS5003;69992;60.170;24.692;2024-02-21T15:50:05;21;19;
80639;PMS5003;69992;60.170;24.692;2024-02-21T15:52:33;24;20;
80639;PMS5003;69992;60.170;24.692;2024-02-21T15:54:56;24;20;
80639;PMS5003;69992;60.170;24.692;2024-02-21T15:57:21;17;16;
80639;PMS5003;69992;60.170;24.692;2024-02-21T15:59:46;19;17;
80639;PMS5003;69992;60.170;24.692;2024-02-21T16:02:12;21;19;